Time,TemperatureF,DewpointF,PressureIn,WindDirection,WindDirectionDegrees,WindSpeedMPH,WindSpeedGustMPH,Humidity,HourlyPrecipIn,Conditions,Clouds,dailyrainin,SoftwareType,DateUTC
2013-03-23 00:11:00,43.0,39.0,30.12,NNE,12,0.0,0.0,87,0.00,,,0.00,weatherlink.com 1.10,2013-03-23 07:11:00,
2013-03-23 00:26:00,42.7,39.0,30.12,NNE,12,0.0,0.0,88,0.00,,,0.00,weatherlink.com 1.10,2013-03-23 07:26:00,
2013-03-23 00:41:00,42.4,39.0,30.12,North,11,0.0,0.0,88,0.00,,,0.00,weatherlink.com 1.10,2013-03-23 07:41:00,
2013-03-23 01:11:00,41.5,39.0,30.12,NNE,12,0.0,0.0,90,0.00,,,0.00,weatherlink.com 1.10,2013-03-23 08:11:00,
2013-03-23 01:26:00,41.1,38.0,30.12,North,11,0.0,0.0,90,0.00,,,0.00,weatherlink.com 1.10,2013-03-23 08:26:00,
2013-03-23 01:41:00,40.8,38.0,30.12,North,11,0.0,0.0,91,0.00,,,0.00,weatherlink.com 1.10,2013-03-23 08:41:00,
2013-03-23 02:00:00,40.6,38.0,30.12,North,11,0.0,0.0,91,0.00,,,0.00,weatherlink.com 1.10,2013-03-23 09:00:00,
2013-03-23 02:12:00,40.3,38.0,30.13,NNE,12,0.0,0.0,92,0.00,,,0.00,weatherlink.com 1.10,2013-03-23 09:12:00,
2013-03-23 02:27:00,39.9,38.0,30.12,NNE,12,0.0,0.0,92,0.00,,,0.00,weatherlink.com 1.10,2013-03-23 09:27:00,
2013-03-23 02:42:00,39.7,38.0,30.12,NNE,12,0.0,0.0,92,0.00,,,0.00,weatherlink.com 1.10,2013-03-23 09:42:00,
2013-03-23 03:12:00,39.2,37.0,30.12,NNE,12,0.0,0.0,93,0.00,,,0.00,weatherlink.com 1.10,2013-03-23 10:12:00,
2013-03-23 03:27:00,39.0,37.0,30.12,North,11,0.0,0.0,93,0.00,,,0.00,weatherlink.com 1.10,2013-03-23 10:27:00,
2013-03-23 03:42:00,38.7,37.0,30.12,North,11,0.0,0.0,93,0.00,,,0.00,weatherlink.com 1.10,2013-03-23 10:42:00,
2013-03-23 03:57:00,38.5,37.0,30.12,North,11,0.0,0.0,94,0.00,,,0.00,weatherlink.com 1.10,2013-03-23 10:57:00,
2013-03-23 04:12:00,38.3,37.0,30.12,NNE,12,0.0,0.0,94,0.00,,,0.00,weatherlink.com 1.10,2013-03-23 11:12:00,
2013-03-23 04:27:00,38.1,37.0,30.12,North,11,0.0,0.0,94,0.00,,,0.00,weatherlink.com 1.10,2013-03-23 11:27:00,
2013-03-23 04:42:00,37.9,36.0,30.12,NNE,12,0.0,0.0,94,0.00,,,0.00,weatherlink.com 1.10,2013-03-23 11:42:00,
2013-03-23 04:57:00,37.7,36.0,30.12,North,11,0.0,0.0,94,0.00,,,0.00,weatherlink.com 1.10,2013-03-23 11:57:00,
2013-03-23 05:12:00,37.5,36.0,30.12,NNE,12,0.0,0.0,94,0.00,,,0.00,weatherlink.com 1.10,2013-03-23 12:12:00,
2013-03-23 05:27:00,37.3,36.0,30.12,NNE,12,0.0,0.0,94,0.00,,,0.00,weatherlink.com 1.10,2013-03-23 12:27:00,
2013-03-23 05:42:00,37.1,36.0,30.13,NNE,12,0.0,0.0,95,0.00,,,0.00,weatherlink.com 1.10,2013-03-23 12:42:00,
2013-03-23 05:57:00,36.9,36.0,30.13,NNE,12,0.0,0.0,95,0.00,,,0.00,weatherlink.com 1.10,2013-03-23 12:57:00,
2013-03-23 06:12:00,36.8,36.0,30.13,NNE,12,0.0,0.0,95,0.00,,,0.00,weatherlink.com 1.10,2013-03-23 13:12:00,
2013-03-23 06:27:00,36.7,35.0,30.13,North,11,0.0,0.0,95,0.00,,,0.00,weatherlink.com 1.10,2013-03-23 13:27:00,
2013-03-23 06:42:00,36.4,35.0,30.14,NNE,12,0.0,0.0,95,0.00,,,0.00,weatherlink.com 1.10,2013-03-23 13:42:00,
2013-03-23 06:57:00,36.3,35.0,30.14,North,11,0.0,0.0,95,0.00,,,0.00,weatherlink.com 1.10,2013-03-23 13:57:00,
2013-03-23 07:12:00,36.0,35.0,30.15,North,11,0.0,0.0,95,0.00,,,0.00,weatherlink.com 1.10,2013-03-23 14:12:00,
2013-03-23 07:27:00,36.0,35.0,30.16,North,11,0.0,0.0,95,0.00,,,0.00,weatherlink.com 1.10,2013-03-23 14:27:00,
2013-03-23 07:42:00,35.9,35.0,30.16,NNE,12,0.0,0.0,95,0.00,,,0.00,weatherlink.com 1.10,2013-03-23 14:42:00,
2013-03-23 07:57:00,35.9,35.0,30.17,North,11,0.0,0.0,95,0.00,,,0.00,weatherlink.com 1.10,2013-03-23 14:57:00,
2013-03-23 08:13:00,35.8,35.0,30.17,NNE,12,0.0,0.0,96,0.00,,,0.00,weatherlink.com 1.10,2013-03-23 15:13:00,
2013-03-23 08:28:00,36.0,35.0,30.17,North,11,0.0,0.0,96,0.00,,,0.00,weatherlink.com 1.10,2013-03-23 15:28:00,
2013-03-23 08:43:00,36.4,35.0,30.17,North,11,0.0,0.0,96,0.00,,,0.00,weatherlink.com 1.10,2013-03-23 15:43:00,
2013-03-23 08:58:00,36.9,36.0,30.17,North,11,0.0,0.0,96,0.00,,,0.00,weatherlink.com 1.10,2013-03-23 15:58:00,
2013-03-23 09:13:00,37.7,37.0,30.17,NNE,12,0.0,0.0,97,0.00,,,0.00,weatherlink.com 1.10,2013-03-23 16:13:00,
2013-03-23 09:28:00,38.7,38.0,30.16,NNE,12,0.0,0.0,97,0.00,,,0.00,weatherlink.com 1.10,2013-03-23 16:28:00,
2013-03-23 09:43:00,40.0,39.0,30.16,North,11,0.0,0.0,97,0.00,,,0.00,weatherlink.com 1.10,2013-03-23 16:43:00,
2013-03-23 09:58:00,41.8,41.0,30.17,North,11,0.0,0.0,98,0.00,,,0.00,weatherlink.com 1.10,2013-03-23 16:58:00,
2013-03-23 10:13:00,43.5,43.0,30.17,NNE,12,0.0,0.0,96,0.00,,,0.00,weatherlink.com 1.10,2013-03-23 17:13:00,
2013-03-23 10:28:00,45.6,44.0,30.17,NNE,12,0.0,0.0,93,0.00,,,0.00,weatherlink.com 1.10,2013-03-23 17:28:00,
2013-03-23 10:43:00,47.4,44.0,30.16,NNE,12,0.0,0.0,88,0.00,,,0.00,weatherlink.com 1.10,2013-03-23 17:43:00,
2013-03-23 10:58:00,48.8,45.0,30.16,North,11,0.0,0.0,86,0.00,,,0.00,weatherlink.com 1.10,2013-03-23 17:58:00,
2013-03-23 11:13:00,50.7,45.0,30.16,NNE,12,0.0,0.0,81,0.00,,,0.00,weatherlink.com 1.10,2013-03-23 18:13:00,
2013-03-23 11:28:00,52.4,45.0,30.15,North,11,0.0,0.0,75,0.00,,,0.00,weatherlink.com 1.10,2013-03-23 18:28:00,
2013-03-23 11:43:00,54.3,44.0,30.15,ESE,103,0.0,0.0,69,0.00,,,0.00,weatherlink.com 1.10,2013-03-23 18:43:00,
2013-03-23 11:58:00,55.4,43.0,30.15,NNE,21,0.0,0.0,63,0.00,,,0.00,weatherlink.com 1.10,2013-03-23 18:58:00,
2013-03-23 12:13:00,56.8,46.0,30.14,SE,143,0.0,0.0,67,0.00,,,0.00,weatherlink.com 1.10,2013-03-23 19:13:00,
2013-03-23 12:28:00,58.2,43.0,30.14,SE,124,0.0,0.0,58,0.00,,,0.00,weatherlink.com 1.10,2013-03-23 19:28:00,
2013-03-23 12:43:00,59.3,43.0,30.12,SW,219,0.0,1.0,55,0.00,,,0.00,weatherlink.com 1.10,2013-03-23 19:43:00,
2013-03-23 12:58:00,60.5,44.0,30.12,SSE,150,0.0,2.0,54,0.00,,,0.00,weatherlink.com 1.10,2013-03-23 19:58:00,
2013-03-23 13:13:00,61.8,43.0,30.11,NNE,15,0.0,2.0,50,0.00,,,0.00,weatherlink.com 1.10,2013-03-23 20:13:00,
2013-03-23 13:28:00,62.8,44.0,30.10,SSW,200,0.0,2.0,50,0.00,,,0.00,weatherlink.com 1.10,2013-03-23 20:28:00,
2013-03-23 13:43:00,63.5,47.0,30.09,SSE,150,1.0,2.0,55,0.00,,,0.00,weatherlink.com 1.10,2013-03-23 20:43:00,
2013-03-23 13:59:00,63.9,45.0,30.09,SSW,193,0.0,0.0,51,0.00,,,0.00,weatherlink.com 1.10,2013-03-23 20:59:00,
2013-03-23 14:14:00,64.6,46.0,30.09,SW,224,1.0,3.0,51,0.00,,,0.00,weatherlink.com 1.10,2013-03-23 21:14:00,
2013-03-23 14:29:00,64.7,44.0,30.08,NNW,330,4.0,5.0,48,0.00,,,0.00,weatherlink.com 1.10,2013-03-23 21:29:00,
2013-03-23 14:44:00,63.4,42.0,30.08,WNW,296,1.0,4.0,46,0.00,,,0.00,weatherlink.com 1.10,2013-03-23 21:44:00,
2013-03-23 14:59:00,63.2,41.0,30.08,SSW,195,0.0,3.0,45,0.00,,,0.00,weatherlink.com 1.10,2013-03-23 21:59:00,
2013-03-23 15:14:00,63.0,41.0,30.07,SW,219,0.0,3.0,45,0.00,,,0.00,weatherlink.com 1.10,2013-03-23 22:14:00,
2013-03-23 15:29:00,62.6,42.0,30.07,SSW,197,0.0,2.0,48,0.00,,,0.00,weatherlink.com 1.10,2013-03-23 22:29:00,
2013-03-23 15:44:00,62.7,45.0,30.06,SSW,201,0.0,2.0,52,0.00,,,0.00,weatherlink.com 1.10,2013-03-23 22:44:00,
2013-03-23 15:59:00,62.5,43.0,30.06,SSW,194,0.0,2.0,49,0.00,,,0.00,weatherlink.com 1.10,2013-03-23 22:59:00,
2013-03-23 16:14:00,62.0,41.0,30.06,SSW,211,0.0,1.0,47,0.00,,,0.00,weatherlink.com 1.10,2013-03-23 23:14:00,
2013-03-23 16:29:00,60.9,42.0,30.05,SSW,203,0.0,0.0,51,0.00,,,0.00,weatherlink.com 1.10,2013-03-23 23:29:00,
2013-03-23 16:44:00,60.3,44.0,30.05,SSW,203,0.0,0.0,55,0.00,,,0.00,weatherlink.com 1.10,2013-03-23 23:44:00,
2013-03-23 16:59:00,59.8,45.0,30.05,SSW,203,0.0,0.0,59,0.00,,,0.00,weatherlink.com 1.10,2013-03-23 23:59:00,
2013-03-23 17:14:00,58.2,46.0,30.04,NNE,12,0.0,1.0,65,0.00,,,0.00,weatherlink.com 1.10,2013-03-24 00:14:00,
2013-03-23 17:29:00,57.1,47.0,30.04,North,11,0.0,0.0,68,0.00,,,0.00,weatherlink.com 1.10,2013-03-24 00:29:00,
2013-03-23 17:44:00,56.3,48.0,30.04,North,11,0.0,0.0,73,0.00,,,0.00,weatherlink.com 1.10,2013-03-24 00:44:00,
2013-03-23 17:59:00,55.8,48.0,30.04,North,11,0.0,0.0,76,0.00,,,0.00,weatherlink.com 1.10,2013-03-24 00:59:00,
2013-03-23 18:14:00,55.3,48.0,30.04,North,9,0.0,0.0,76,0.00,,,0.00,weatherlink.com 1.10,2013-03-24 01:14:00,
2013-03-23 18:29:00,54.8,48.0,30.04,North,11,0.0,0.0,77,0.00,,,0.00,weatherlink.com 1.10,2013-03-24 01:29:00,
2013-03-23 18:44:00,54.3,48.0,30.04,North,11,0.0,0.0,78,0.00,,,0.00,weatherlink.com 1.10,2013-03-24 01:44:00,
2013-03-23 18:59:00,53.7,47.0,30.04,North,9,0.0,0.0,79,0.00,,,0.00,weatherlink.com 1.10,2013-03-24 01:59:00,
2013-03-23 19:14:00,53.2,47.0,30.04,North,11,0.0,0.0,80,0.00,,,0.00,weatherlink.com 1.10,2013-03-24 02:14:00,
2013-03-23 19:29:00,52.6,47.0,30.04,North,11,0.0,0.0,80,0.00,,,0.00,weatherlink.com 1.10,2013-03-24 02:29:00,
2013-03-23 19:45:00,52.0,46.0,30.05,North,11,0.0,0.0,81,0.00,,,0.00,weatherlink.com 1.10,2013-03-24 02:45:00,
2013-03-23 20:00:00,51.4,46.0,30.05,North,11,0.0,0.0,81,0.00,,,0.00,weatherlink.com 1.10,2013-03-24 03:00:00,
2013-03-23 20:15:00,50.8,46.0,30.05,North,11,0.0,0.0,82,0.00,,,0.00,weatherlink.com 1.10,2013-03-24 03:15:00,
2013-03-23 20:30:00,50.1,45.0,30.05,North,11,0.0,0.0,83,0.00,,,0.00,weatherlink.com 1.10,2013-03-24 03:30:00,
2013-03-23 20:45:00,49.6,45.0,30.06,North,11,0.0,0.0,84,0.00,,,0.00,weatherlink.com 1.10,2013-03-24 03:45:00,
2013-03-23 21:00:00,49.1,45.0,30.06,North,11,0.0,0.0,85,0.00,,,0.00,weatherlink.com 1.10,2013-03-24 04:00:00,
2013-03-23 21:15:00,48.6,45.0,30.07,North,11,0.0,0.0,86,0.00,,,0.00,weatherlink.com 1.10,2013-03-24 04:15:00,
2013-03-23 21:30:00,48.1,44.0,30.07,NNE,16,0.0,0.0,86,0.00,,,0.00,weatherlink.com 1.10,2013-03-24 04:30:00,
2013-03-23 21:45:00,47.7,44.0,30.07,NNE,16,0.0,0.0,87,0.00,,,0.00,weatherlink.com 1.10,2013-03-24 04:45:00,
2013-03-23 22:00:00,47.2,44.0,30.07,NNE,16,0.0,0.0,88,0.00,,,0.00,weatherlink.com 1.10,2013-03-24 05:00:00,
2013-03-23 22:15:00,46.8,44.0,30.07,NNE,15,0.0,0.0,88,0.00,,,0.00,weatherlink.com 1.10,2013-03-24 05:15:00,
2013-03-23 22:30:00,46.4,43.0,30.07,NNE,16,0.0,0.0,89,0.00,,,0.00,weatherlink.com 1.10,2013-03-24 05:30:00,
2013-03-23 22:45:00,46.0,43.0,30.08,NNE,15,0.0,0.0,89,0.00,,,0.00,weatherlink.com 1.10,2013-03-24 05:45:00,
2013-03-23 23:00:00,45.7,43.0,30.07,NNE,16,0.0,0.0,90,0.00,,,0.00,weatherlink.com 1.10,2013-03-24 06:00:00,
2013-03-23 23:15:00,45.5,43.0,30.07,NNE,15,0.0,0.0,91,0.00,,,0.00,weatherlink.com 1.10,2013-03-24 06:15:00,
2013-03-23 23:30:00,45.1,43.0,30.07,NNE,16,0.0,0.0,91,0.00,,,0.00,weatherlink.com 1.10,2013-03-24 06:30:00,
2013-03-23 23:45:00,44.9,43.0,30.07,NNE,15,0.0,0.0,91,0.00,,,0.00,weatherlink.com 1.10,2013-03-24 06:45:00,